createdAt,value
2023-05-24T00:00:01.665Z,99.90
2023-05-24T00:02:30.068Z,99.90
2023-05-24T00:05:03.339Z,99.90
2023-05-24T00:07:33.339Z,99.90
2023-05-24T00:10:02.548Z,99.90
2023-05-24T00:12:30.560Z,99.90
2023-05-24T00:14:58.862Z,99.90
2023-05-24T00:17:29.881Z,99.90
2023-05-24T00:20:00.049Z,99.90
2023-05-24T00:22:28.205Z,99.90
2023-05-24T00:24:56.701Z,99.90
2023-05-24T00:27:26.410Z,99.90
2023-05-24T00:29:54.614Z,99.90
2023-05-24T00:32:22.988Z,99.90
2023-05-24T00:34:51.629Z,99.90
2023-05-24T00:37:20.006Z,99.90
2023-05-24T00:39:48.958Z,99.90
2023-05-24T00:42:16.887Z,99.90
2023-05-24T00:44:46.414Z,99.90
2023-05-24T00:47:14.679Z,99.90
2023-05-24T00:49:43.031Z,99.90
2023-05-24T00:52:11.316Z,99.90
2023-05-24T00:54:41.221Z,99.90
2023-05-24T00:57:09.519Z,99.90
2023-05-24T00:59:37.996Z,99.90
2023-05-24T01:02:07.226Z,99.90
2023-05-24T01:04:35.962Z,99.90
2023-05-24T01:07:13.980Z,99.90
2023-05-24T01:09:58.560Z,99.90
2023-05-24T01:12:34.149Z,99.90
2023-05-24T01:15:12.733Z,99.90
2023-05-24T01:17:51.789Z,99.90
2023-05-24T01:20:22.959Z,99.90
2023-05-24T01:23:22.384Z,99.90
2023-05-24T01:26:05.885Z,99.90
2023-05-24T01:28:36.365Z,99.90
2023-05-24T01:31:06.999Z,99.90
2023-05-24T01:33:35.456Z,99.90
2023-05-24T01:36:05.784Z,99.90
2023-05-24T01:38:34.032Z,99.90
2023-05-24T01:41:08.698Z,99.90
2023-05-24T01:43:42.026Z,99.90
2023-05-24T01:46:19.907Z,99.90
2023-05-24T01:48:58.777Z,99.90
2023-05-24T01:51:32.599Z,99.90
2023-05-24T01:54:02.387Z,99.90
2023-05-24T01:56:32.022Z,99.90
2023-05-24T01:59:03.411Z,99.90
2023-05-24T02:01:32.335Z,99.90
2023-05-24T02:04:01.400Z,99.90
2023-05-24T02:06:32.086Z,99.90
2023-05-24T02:08:59.893Z,99.90
2023-05-24T02:11:27.925Z,99.90
2023-05-24T02:13:56.334Z,99.90
2023-05-24T02:16:27.185Z,99.90
2023-05-24T02:18:55.534Z,99.90
2023-05-24T02:21:27.237Z,99.90
2023-05-24T02:23:55.352Z,99.90
2023-05-24T02:26:23.450Z,99.90
2023-05-24T02:28:52.038Z,99.90
2023-05-24T02:31:21.731Z,99.90
2023-05-24T02:33:51.438Z,99.90
2023-05-24T02:36:19.301Z,99.90
2023-05-24T02:38:49.160Z,99.90
2023-05-24T02:41:18.214Z,99.90
2023-05-24T02:43:46.483Z,99.90
2023-05-24T02:46:15.289Z,99.90
2023-05-24T02:48:43.419Z,99.90
2023-05-24T02:51:14.275Z,99.90
2023-05-24T02:53:43.533Z,99.90
2023-05-24T02:56:14.103Z,99.90
2023-05-24T02:58:42.712Z,99.90
2023-05-24T03:01:12.502Z,99.90
2023-05-24T03:03:41.902Z,99.90
2023-05-24T03:06:14.268Z,99.90
2023-05-24T03:08:42.694Z,99.90
2023-05-24T03:11:10.842Z,99.90
2023-05-24T03:13:38.625Z,99.90
2023-05-24T03:16:07.425Z,99.90
2023-05-24T03:18:37.063Z,99.90
2023-05-24T03:21:08.313Z,99.90
2023-05-24T03:23:37.745Z,99.90
2023-05-24T03:26:06.116Z,99.90
2023-05-24T03:28:35.086Z,99.90
2023-05-24T03:31:03.025Z,99.90
2023-05-24T03:33:32.112Z,99.90
2023-05-24T03:36:00.800Z,99.90
2023-05-24T03:38:28.847Z,99.90
2023-05-24T03:40:59.598Z,99.90
2023-05-24T03:43:27.617Z,99.90
2023-05-24T03:45:55.526Z,99.90
2023-05-24T03:48:23.798Z,99.90
2023-05-24T03:50:53.149Z,99.90
2023-05-24T03:53:23.452Z,99.90
2023-05-24T03:55:54.687Z,99.90
2023-05-24T03:58:24.344Z,99.90
2023-05-24T04:00:52.148Z,99.90
2023-05-24T04:03:21.700Z,99.90
2023-05-24T04:05:49.732Z,99.90
2023-05-24T04:08:18.234Z,99.90
2023-05-24T04:10:46.798Z,99.90
2023-05-24T04:13:14.962Z,99.90
2023-05-24T04:15:44.880Z,99.90
2023-05-24T04:18:12.804Z,99.90
2023-05-24T04:20:41.918Z,99.90
2023-05-24T04:23:10.170Z,99.90
2023-05-24T04:25:38.779Z,99.90
2023-05-24T04:28:06.958Z,99.90
2023-05-24T04:30:37.346Z,99.90
2023-05-24T04:33:07.012Z,99.90
2023-05-24T04:35:35.697Z,99.90
2023-05-24T04:38:04.080Z,99.90
2023-05-24T04:40:32.484Z,99.90
2023-05-24T04:43:01.140Z,99.90
2023-05-24T04:45:30.760Z,99.90
2023-05-24T04:47:58.883Z,99.90
2023-05-24T04:50:30.773Z,99.90
2023-05-24T04:52:59.458Z,99.90
2023-05-24T04:55:27.240Z,99.90
2023-05-24T04:57:55.304Z,99.90
2023-05-24T05:00:23.144Z,99.90
2023-05-24T05:02:51.679Z,99.90
2023-05-24T05:05:20.218Z,99.90
2023-05-24T05:07:49.818Z,99.90
2023-05-24T05:10:17.910Z,99.90
2023-05-24T05:12:46.350Z,99.90
2023-05-24T05:15:14.248Z,99.90
2023-05-24T05:17:42.040Z,99.90
2023-05-24T05:20:10.744Z,99.90
2023-05-24T05:22:38.873Z,99.90
2023-05-24T05:25:09.597Z,99.90
2023-05-24T05:27:38.107Z,99.90
2023-05-24T05:30:10.542Z,99.90
2023-05-24T05:32:40.690Z,99.90
2023-05-24T05:35:10.266Z,99.90
2023-05-24T05:37:38.485Z,99.90
2023-05-24T05:40:09.730Z,99.90
2023-05-24T05:42:37.796Z,99.90
2023-05-24T05:45:13.630Z,99.90
2023-05-24T05:47:43.519Z,99.90
2023-05-24T05:50:14.098Z,99.20
2023-05-24T05:52:57.099Z,99.90
2023-05-24T05:55:27.013Z,99.90
2023-05-24T05:57:54.749Z,96.40
2023-05-24T06:00:25.148Z,95.50
2023-05-24T06:02:53.388Z,93.50
2023-05-24T06:05:22.001Z,91.10
2023-05-24T06:07:51.589Z,90.10
2023-05-24T06:10:20.905Z,88.20
2023-05-24T06:12:50.618Z,90.30
2023-05-24T06:15:18.483Z,91.40
2023-05-24T06:17:47.933Z,86.10
2023-05-24T06:20:40.364Z,81.50
2023-05-24T06:23:12.909Z,76.70
2023-05-24T06:25:44.358Z,75.90
2023-05-24T06:28:14.468Z,74.00
2023-05-24T06:31:12.851Z,74.70
2023-05-24T06:33:42.687Z,72.50
2023-05-24T06:36:15.324Z,68.10
2023-05-24T06:38:45.490Z,65.80
2023-05-24T06:41:23.115Z,66.60
2023-05-24T06:43:55.803Z,67.20
2023-05-24T06:46:24.815Z,66.50
2023-05-24T06:48:54.207Z,65.90
2023-05-24T06:51:22.623Z,66.80
2023-05-24T06:53:52.304Z,67.30
2023-05-24T06:56:20.764Z,65.90
2023-05-24T06:58:50.107Z,69.00
2023-05-24T07:01:20.169Z,69.50
2023-05-24T07:03:48.580Z,69.10
2023-05-24T07:06:16.436Z,69.60
2023-05-24T07:08:44.846Z,69.30
2023-05-24T07:11:14.098Z,69.10
2023-05-24T07:13:42.098Z,66.40
2023-05-24T07:16:10.256Z,67.50
2023-05-24T07:18:41.568Z,68.60
2023-05-24T07:21:09.543Z,67.50
2023-05-24T07:23:39.770Z,68.60
2023-05-24T07:26:09.404Z,67.70
2023-05-24T07:28:40.937Z,64.60
2023-05-24T07:31:11.419Z,63.60
2023-05-24T07:33:40.854Z,66.20
2023-05-24T07:36:09.876Z,65.70
2023-05-24T07:38:39.261Z,64.10
2023-05-24T07:41:08.354Z,66.30
2023-05-24T07:43:37.945Z,65.30
2023-05-24T07:46:10.456Z,64.80
2023-05-24T07:48:39.731Z,66.50
2023-05-24T07:51:08.035Z,65.40
2023-05-24T07:53:37.621Z,64.90
2023-05-24T07:56:05.710Z,64.20
2023-05-24T07:58:36.801Z,65.90
2023-05-24T08:01:07.937Z,66.50
2023-05-24T08:03:37.198Z,66.60
2023-05-24T08:06:07.178Z,67.70
2023-05-24T08:08:37.973Z,65.90
2023-05-24T08:11:07.164Z,66.30
2023-05-24T08:13:35.815Z,65.70
2023-05-24T08:16:03.675Z,62.90
2023-05-24T08:18:34.078Z,62.50
2023-05-24T08:21:03.936Z,61.90
2023-05-24T08:23:34.494Z,58.20
2023-05-24T08:26:04.619Z,58.20
2023-05-24T08:28:32.977Z,58.60
2023-05-24T08:31:02.614Z,56.60
2023-05-24T08:33:30.540Z,55.90
2023-05-24T08:35:58.536Z,54.60
2023-05-24T08:38:26.262Z,55.40
2023-05-24T08:40:55.496Z,54.20
2023-05-24T08:43:24.794Z,53.00
2023-05-24T08:45:54.475Z,53.70
2023-05-24T08:48:23.674Z,54.70
2023-05-24T08:50:54.005Z,55.70
2023-05-24T08:53:23.613Z,54.60
2023-05-24T08:55:54.496Z,52.80
2023-05-24T08:58:24.012Z,54.20
2023-05-24T09:00:52.287Z,54.70
2023-05-24T09:03:22.067Z,55.70
2023-05-24T09:05:50.519Z,54.70
2023-05-24T09:08:20.541Z,53.50
2023-05-24T09:10:55.616Z,53.00
2023-05-24T09:13:28.430Z,52.30
2023-05-24T09:15:56.961Z,54.30
2023-05-24T09:18:29.687Z,53.80
2023-05-24T09:20:57.807Z,50.60
2023-05-24T09:23:28.265Z,49.60
2023-05-24T09:25:56.784Z,49.40
2023-05-24T09:28:26.624Z,49.90
2023-05-24T09:31:07.326Z,48.60
2023-05-24T09:33:36.885Z,49.30
2023-05-24T09:36:09.741Z,49.20
2023-05-24T09:38:39.631Z,50.20
2023-05-24T09:41:10.779Z,49.60
2023-05-24T09:43:51.031Z,48.40
2023-05-24T09:46:21.613Z,47.40
2023-05-24T09:48:59.483Z,47.60
2023-05-24T09:51:28.391Z,48.90
2023-05-24T09:54:03.992Z,49.70
2023-05-24T09:56:35.237Z,48.60
2023-05-24T09:59:11.394Z,49.10
2023-05-24T10:01:46.831Z,45.90
2023-05-24T10:04:15.503Z,47.40
2023-05-24T10:06:44.874Z,41.00
2023-05-24T10:09:14.268Z,37.40
2023-05-24T10:11:43.729Z,32.50
2023-05-24T10:14:13.500Z,26.30
2023-05-24T10:16:44.720Z,26.60
2023-05-24T10:19:13.044Z,28.50
2023-05-24T10:21:46.743Z,30.60
2023-05-24T10:24:21.440Z,36.70
2023-05-24T10:26:50.591Z,42.40
2023-05-24T10:29:33.341Z,45.00
2023-05-24T10:32:03.350Z,46.30
2023-05-24T10:34:32.064Z,43.10
2023-05-24T10:37:00.247Z,45.60
2023-05-24T10:39:29.390Z,46.00
2023-05-24T10:41:58.018Z,45.20
2023-05-24T10:44:31.392Z,47.00
2023-05-24T10:47:13.159Z,47.70
2023-05-24T10:49:52.674Z,45.60
2023-05-24T10:52:21.638Z,42.80
2023-05-24T10:55:08.240Z,40.70
2023-05-24T10:57:37.166Z,40.70
2023-05-24T11:03:04.787Z,42.30
2023-05-24T11:05:37.291Z,41.10
2023-05-24T11:08:09.368Z,44.10
2023-05-24T11:10:37.387Z,38.20
2023-05-24T11:13:09.613Z,39.20
2023-05-24T11:15:39.732Z,41.40
2023-05-24T11:18:18.334Z,39.70
2023-05-24T11:20:47.303Z,38.00
2023-05-24T11:23:18.682Z,33.40
2023-05-24T11:25:48.804Z,36.30
2023-05-24T11:28:20.436Z,32.50
2023-05-24T11:30:50.670Z,33.40
2023-05-24T11:33:23.703Z,34.30
2023-05-24T11:35:55.959Z,29.60
2023-05-24T11:38:27.532Z,27.70
2023-05-24T11:40:59.518Z,23.50
2023-05-24T11:43:31.317Z,23.40
2023-05-24T11:46:00.558Z,18.80
2023-05-24T11:48:29.885Z,17.00
2023-05-24T11:50:59.984Z,13.50
2023-05-24T11:53:28.007Z,13.10
2023-05-24T11:55:56.915Z,15.70
2023-05-24T11:58:28.343Z,18.40
2023-05-24T12:01:03.137Z,20.00
2023-05-24T12:03:31.084Z,21.10
2023-05-24T12:05:59.666Z,24.10
2023-05-24T12:08:28.364Z,24.60
2023-05-24T12:10:56.577Z,23.20
2023-05-24T12:13:26.852Z,23.50
2023-05-24T12:15:56.869Z,26.10
2023-05-24T12:18:30.539Z,26.90
2023-05-24T12:20:58.566Z,26.70
2023-05-24T12:23:29.480Z,25.30
2023-05-24T12:26:03.389Z,26.10
2023-05-24T12:28:36.386Z,28.40
2023-05-24T12:31:05.559Z,25.70
2023-05-24T12:33:36.179Z,27.30
2023-05-24T12:36:04.744Z,26.10
2023-05-24T12:38:33.122Z,23.80
2023-05-24T12:41:12.464Z,25.00
2023-05-24T12:43:44.623Z,21.80
2023-05-24T12:46:13.178Z,17.60
2023-05-24T12:48:43.078Z,17.20
2023-05-24T12:51:11.293Z,18.50
2023-05-24T12:53:39.012Z,17.50
2023-05-24T12:56:08.894Z,14.10
2023-05-24T12:58:37.400Z,16.90
2023-05-24T13:01:06.322Z,18.40
2023-05-24T13:03:35.491Z,17.50
2023-05-24T13:06:06.500Z,14.60
2023-05-24T13:08:34.532Z,15.40
2023-05-24T13:11:04.937Z,11.40
2023-05-24T13:13:32.863Z,11.50
2023-05-24T13:16:05.043Z,10.80
2023-05-24T13:18:34.219Z,10.30
2023-05-24T13:21:07.096Z,7.30
2023-05-24T13:23:36.461Z,4.30
2023-05-24T13:26:05.126Z,3.80
2023-05-24T13:28:53.357Z,3.70
2023-05-24T13:31:47.928Z,5.20
2023-05-24T13:34:18.009Z,4.00
2023-05-24T13:36:48.801Z,2.00
2023-05-24T13:39:17.371Z,1.00
2023-05-24T13:41:48.341Z,1.20
2023-05-24T13:44:17.484Z,1.00
2023-05-24T13:46:49.035Z,1.00
2023-05-24T13:49:19.241Z,1.00
2023-05-24T13:51:49.372Z,1.00
2023-05-24T13:54:20.424Z,1.00
2023-05-24T13:56:49.252Z,1.00
2023-05-24T13:59:18.212Z,1.00
2023-05-24T14:01:47.013Z,1.00
2023-05-24T14:04:16.934Z,1.90
2023-05-24T14:06:48.556Z,1.90
2023-05-24T14:09:21.062Z,5.10
2023-05-24T14:11:53.038Z,2.60
2023-05-24T14:14:58.332Z,1.30
2023-05-24T14:17:18.553Z,1.50
2023-05-24T14:19:51.372Z,3.80
2023-05-24T14:22:24.892Z,5.50
2023-05-24T14:24:54.647Z,3.20
2023-05-24T14:27:23.302Z,2.40
2023-05-24T14:29:57.934Z,2.80
2023-05-24T14:32:29.213Z,2.90
2023-05-24T14:34:57.349Z,2.30
2023-05-24T14:37:27.422Z,1.00
2023-05-24T14:39:58.038Z,1.00
2023-05-24T14:42:26.314Z,1.00
2023-05-24T14:44:54.877Z,1.00
2023-05-24T14:47:23.468Z,1.00
2023-05-24T14:49:51.286Z,1.00
2023-05-24T14:52:19.106Z,1.00
2023-05-24T14:54:49.262Z,1.00
2023-05-24T14:57:18.063Z,1.00
2023-05-24T14:59:46.568Z,1.00
2023-05-24T15:02:14.487Z,1.00
2023-05-24T15:04:43.566Z,1.00
2023-05-24T15:07:11.689Z,1.00
2023-05-24T15:09:39.647Z,1.00
2023-05-24T15:12:09.735Z,1.00
2023-05-24T15:14:38.853Z,1.00
2023-05-24T15:17:07.409Z,1.00
2023-05-24T15:19:38.576Z,1.00
2023-05-24T15:22:07.621Z,1.00
2023-05-24T15:24:35.981Z,1.00
2023-05-24T15:27:12.310Z,1.00
2023-05-24T15:29:41.796Z,1.00
2023-05-24T15:32:11.957Z,1.00
2023-05-24T15:34:40.562Z,1.00
2023-05-24T15:37:08.341Z,1.00
2023-05-24T15:39:36.939Z,1.00
2023-05-24T15:42:05.910Z,1.00
2023-05-24T15:44:33.746Z,1.00
2023-05-24T15:47:03.974Z,1.00
2023-05-24T15:49:32.157Z,1.00
2023-05-24T15:52:04.268Z,1.00
2023-05-24T15:54:32.889Z,1.00
2023-05-24T15:57:01.959Z,1.00
2023-05-24T15:59:29.915Z,1.00
2023-05-24T16:01:57.812Z,1.00
2023-05-24T16:04:29.642Z,1.00
2023-05-24T16:06:57.756Z,1.00
2023-05-24T16:09:25.846Z,1.00
2023-05-24T16:11:54.071Z,1.00
2023-05-24T16:14:22.559Z,1.00
2023-05-24T16:16:51.005Z,1.00
2023-05-24T16:19:19.525Z,1.00
2023-05-24T16:21:48.686Z,1.00
2023-05-24T16:24:16.618Z,1.00
2023-05-24T16:26:44.688Z,1.00
2023-05-24T16:29:14.973Z,1.00
2023-05-24T16:31:43.926Z,1.40
2023-05-24T16:34:12.178Z,2.80
2023-05-24T16:36:40.838Z,3.00
2023-05-24T16:39:11.949Z,4.10
2023-05-24T16:41:40.489Z,4.60
2023-05-24T16:44:08.424Z,4.20
2023-05-24T16:46:38.924Z,5.00
2023-05-24T16:49:06.816Z,4.10
2023-05-24T16:51:35.355Z,5.60
2023-05-24T16:54:03.424Z,2.40
2023-05-24T16:56:32.849Z,2.30
2023-05-24T16:59:00.662Z,3.20
2023-05-24T17:01:28.583Z,4.10
2023-05-24T17:03:56.712Z,4.40
2023-05-24T17:06:24.758Z,5.60
2023-05-24T17:08:54.922Z,4.90
2023-05-24T17:11:23.175Z,5.00
2023-05-24T17:13:52.616Z,4.90
2023-05-24T17:16:20.769Z,6.10
2023-05-24T17:18:48.665Z,6.80
2023-05-24T17:21:16.410Z,6.00
2023-05-24T17:23:44.637Z,4.30
2023-05-24T17:26:14.829Z,3.50
2023-05-24T17:28:46.446Z,1.00
2023-05-24T17:31:17.250Z,1.00
2023-05-24T17:33:45.077Z,1.00
2023-05-24T17:36:12.820Z,1.00
2023-05-24T17:38:42.212Z,1.00
2023-05-24T17:41:12.516Z,1.00
2023-05-24T17:43:43.513Z,1.00
2023-05-24T17:46:13.478Z,1.00
2023-05-24T17:48:43.577Z,1.00
2023-05-24T17:51:11.723Z,1.00
2023-05-24T17:53:41.159Z,1.00
2023-05-24T17:56:10.667Z,1.00
2023-05-24T17:58:39.059Z,1.00
2023-05-24T18:01:08.889Z,1.00
2023-05-24T18:03:38.207Z,1.60
2023-05-24T18:06:16.335Z,4.10
2023-05-24T18:09:06.594Z,7.30
2023-05-24T18:11:34.983Z,14.70
2023-05-24T18:14:04.325Z,23.10
2023-05-24T18:16:32.667Z,27.70
2023-05-24T18:19:03.972Z,30.70
2023-05-24T18:21:33.321Z,34.90
2023-05-24T18:24:01.586Z,35.70
2023-05-24T18:26:29.783Z,37.50
2023-05-24T18:29:01.653Z,39.10
2023-05-24T18:31:31.918Z,41.60
2023-05-24T18:34:04.284Z,43.40
2023-05-24T18:36:34.179Z,45.30
2023-05-24T18:39:09.737Z,47.90
2023-05-24T18:41:37.580Z,49.30
2023-05-24T18:44:05.688Z,50.30
2023-05-24T18:46:33.655Z,50.80
2023-05-24T18:49:03.001Z,51.70
2023-05-24T18:51:38.333Z,52.40
2023-05-24T18:54:10.333Z,53.20
2023-05-24T18:56:41.623Z,54.40
2023-05-24T18:59:11.709Z,55.60
2023-05-24T19:01:43.783Z,56.80
2023-05-24T19:04:11.618Z,58.30
2023-05-24T19:06:40.869Z,59.80
2023-05-24T19:09:09.507Z,61.90
2023-05-24T19:11:38.500Z,63.50
2023-05-24T19:14:07.493Z,66.30
2023-05-24T19:16:37.894Z,67.70
2023-05-24T19:19:07.304Z,69.90
2023-05-24T19:21:35.067Z,72.30
2023-05-24T19:24:04.334Z,74.60
2023-05-24T19:26:32.111Z,76.40
2023-05-24T19:29:02.983Z,80.70
2023-05-24T19:31:35.635Z,82.50
2023-05-24T19:34:04.213Z,84.00
2023-05-24T19:36:34.495Z,86.40
2023-05-24T19:39:03.771Z,88.70
2023-05-24T19:41:32.748Z,90.30
2023-05-24T19:44:00.529Z,91.30
2023-05-24T19:46:29.148Z,92.40
2023-05-24T19:48:57.482Z,92.90
2023-05-24T19:51:26.088Z,93.90
2023-05-24T19:53:54.662Z,93.80
2023-05-24T19:56:25.165Z,95.10
2023-05-24T19:58:53.483Z,95.40
2023-05-24T20:01:22.757Z,96.10
2023-05-24T20:03:50.885Z,96.60
2023-05-24T20:06:19.240Z,97.60
2023-05-24T20:08:48.631Z,98.20
2023-05-24T20:11:16.687Z,98.80
2023-05-24T20:13:48.988Z,99.60
2023-05-24T20:16:17.114Z,99.90
2023-05-24T20:18:44.875Z,99.90
2023-05-24T20:21:13.592Z,99.90
2023-05-24T20:23:46.376Z,99.90
2023-05-24T20:26:14.672Z,99.90
2023-05-24T20:28:43.933Z,99.90
2023-05-24T20:31:17.856Z,99.90
2023-05-24T20:33:48.648Z,99.90
2023-05-24T20:36:17.101Z,99.90
2023-05-24T20:38:45.643Z,99.90
2023-05-24T20:41:14.160Z,99.90
2023-05-24T20:43:43.765Z,99.90
2023-05-24T20:46:11.894Z,99.90
2023-05-24T20:48:42.153Z,99.90
2023-05-24T20:51:11.047Z,99.90
2023-05-24T20:53:39.250Z,99.90
2023-05-24T20:56:08.608Z,99.90
2023-05-24T20:58:37.750Z,99.90
2023-05-24T21:01:06.091Z,99.90
2023-05-24T21:03:39.983Z,99.90
2023-05-24T21:06:09.276Z,99.90
2023-05-24T21:09:15.291Z,99.90
2023-05-24T21:11:45.073Z,99.90
2023-05-24T21:14:16.003Z,99.90
2023-05-24T21:16:44.525Z,99.90
2023-05-24T21:19:12.233Z,99.90
2023-05-24T21:21:44.920Z,99.90
2023-05-24T21:24:14.752Z,99.90
2023-05-24T21:26:43.234Z,99.90
2023-05-24T21:29:15.244Z,99.90
2023-05-24T21:31:47.321Z,99.90
2023-05-24T21:34:15.274Z,99.90
2023-05-24T21:36:48.834Z,99.90
2023-05-24T21:39:16.612Z,99.90
2023-05-24T21:41:45.964Z,99.90
2023-05-24T21:44:15.696Z,99.90
2023-05-24T21:46:45.522Z,99.90
2023-05-24T21:49:21.421Z,99.90
2023-05-24T21:51:50.676Z,99.90
2023-05-24T21:54:20.708Z,99.90
2023-05-24T21:56:48.629Z,99.90
2023-05-24T21:59:19.266Z,99.90
2023-05-24T22:01:48.464Z,99.90
2023-05-24T22:04:18.316Z,99.90
2023-05-24T22:06:47.583Z,99.90
2023-05-24T22:09:19.954Z,99.90
2023-05-24T22:11:57.500Z,99.90
2023-05-24T22:14:29.601Z,99.90
2023-05-24T22:16:58.643Z,99.90
2023-05-24T22:19:40.044Z,99.90
2023-05-24T22:22:08.570Z,99.90
2023-05-24T22:24:37.988Z,99.90
2023-05-24T22:27:09.631Z,99.90
2023-05-24T22:29:37.594Z,99.90
2023-05-24T22:32:05.834Z,99.90
2023-05-24T22:34:34.212Z,99.90
2023-05-24T22:37:03.037Z,99.90
2023-05-24T22:39:31.492Z,99.90
2023-05-24T22:42:01.699Z,99.90
2023-05-24T22:44:31.459Z,99.90
2023-05-24T22:47:02.253Z,99.90
2023-05-24T22:49:34.606Z,99.90
2023-05-24T22:52:03.254Z,99.90
2023-05-24T22:54:31.384Z,99.90
2023-05-24T22:57:00.982Z,99.90
2023-05-24T22:59:31.130Z,99.90
2023-05-24T23:02:00.473Z,99.90
2023-05-24T23:04:28.917Z,99.90
2023-05-24T23:06:57.312Z,99.90
2023-05-24T23:09:35.226Z,99.90
2023-05-24T23:12:08.272Z,99.90
2023-05-24T23:14:39.334Z,99.90
2023-05-24T23:17:10.380Z,99.90
2023-05-24T23:19:42.876Z,99.90
2023-05-24T23:22:12.292Z,99.90
2023-05-24T23:24:42.869Z,99.90
2023-05-24T23:27:12.823Z,99.90
2023-05-24T23:29:40.826Z,99.90
2023-05-24T23:32:10.200Z,99.90
2023-05-24T23:34:39.004Z,99.90
2023-05-24T23:37:09.070Z,99.90
2023-05-24T23:39:37.077Z,99.90
2023-05-24T23:42:06.989Z,99.90
2023-05-24T23:44:36.248Z,99.90
2023-05-24T23:47:04.323Z,99.90
2023-05-24T23:49:34.447Z,99.90
2023-05-24T23:52:03.213Z,99.90
2023-05-24T23:54:31.704Z,99.90
2023-05-24T23:57:00.422Z,99.90
2023-05-24T23:59:28.415Z,99.90
